Time;durP1;ratioP1;P1;durP2;ratioP2;P2;SDS_P1;SDS_P2;PMS_P1;PMS_P2;Temp;Humidity;BMP_temperature;BMP_pressure;BME280_temperature;BME280_humidity;BME280_pressure;Samples;Min_cycle;Max_cycle;Signal;HPM_P1;HPM_P2
2022/01/01 00:01:17;;;;;;;1.67;1.58;;;;;;;5.60;93.54;99296.72;5076311;28;20176;-82
2022/01/01 00:03:43;;;;;;;0.17;0.17;;;;;;;5.65;93.75;99303.16;5076006;28;20399;-82
2022/01/01 00:06:08;;;;;;;1.13;1.00;;;;;;;5.59;93.92;99303.06;5076068;28;20100;-82
2022/01/01 00:08:34;;;;;;;0.52;0.52;;;;;;;5.49;94.22;99297.56;5075952;28;20024;-82
2022/01/01 00:10:59;;;;;;;1.67;1.58;;;;;;;5.51;94.58;99300.00;5076142;28;20051;-82
2022/01/01 00:13:24;;;;;;;0.75;0.75;;;;;;;5.45;94.52;99299.06;5076130;28;20036;-82
2022/01/01 00:15:50;;;;;;;0.20;0.20;;;;;;;5.43;95.10;99295.84;5075838;28;20035;-83
2022/01/01 00:18:16;;;;;;;0.20;0.20;;;;;;;5.41;95.08;99288.13;5076108;28;20028;-82
2022/01/01 00:20:42;;;;;;;1.13;1.13;;;;;;;5.41;95.53;99293.44;5075801;28;20036;-83
2022/01/01 00:23:08;;;;;;;0.03;0.03;;;;;;;5.39;95.66;99281.44;5075908;28;20525;-83
2022/01/01 00:25:33;;;;;;;1.17;1.13;;;;;;;5.42;95.25;99281.78;5075881;28;20042;-82
2022/01/01 00:27:58;;;;;;;0.22;0.22;;;;;;;5.44;95.33;99290.31;5075758;28;20036;-82
2022/01/01 00:30:24;;;;;;;1.15;0.85;;;;;;;5.42;95.31;99283.63;5075837;28;20471;-82
2022/01/01 00:32:49;;;;;;;1.30;1.30;;;;;;;5.42;95.67;99279.13;5075813;28;20048;-82
2022/01/01 00:35:15;;;;;;;0.10;0.10;;;;;;;5.44;95.17;99270.94;5075853;28;20054;-82
2022/01/01 00:37:40;;;;;;;0.10;0.10;;;;;;;5.41;95.02;99264.25;5075697;28;20094;-81
2022/01/01 00:40:06;;;;;;;0.43;0.43;;;;;;;5.45;95.32;99281.31;5075839;28;20081;-82
2022/01/01 00:42:32;;;;;;;2.83;2.63;;;;;;;5.42;95.36;99278.31;5075465;28;20032;-82
2022/01/01 00:44:57;;;;;;;0.55;0.55;;;;;;;5.39;95.34;99261.03;5075077;28;20044;-82
2022/01/01 00:47:23;;;;;;;0.63;0.63;;;;;;;5.43;95.73;99271.97;5075713;28;20047;-82
2022/01/01 00:49:48;;;;;;;0.20;0.20;;;;;;;5.49;95.34;99278.97;5074926;28;20530;-80
2022/01/01 00:52:14;;;;;;;0.05;0.05;;;;;;;5.48;94.83;99268.63;5075046;28;20082;-81
2022/01/01 00:54:41;;;;;;;0.00;0.00;;;;;;;5.45;94.73;99260.09;5074839;28;20024;-83
2022/01/01 00:57:06;;;;;;;0.43;0.43;;;;;;;5.50;94.31;99264.69;5075415;28;20032;-80
2022/01/01 00:59:32;;;;;;;6.50;1.27;;;;;;;5.51;93.99;99255.69;5075620;28;20036;-81
2022/01/01 01:01:58;;;;;;;0.00;0.00;;;;;;;5.50;93.46;99253.28;5075198;28;20059;-81
2022/01/01 01:04:23;;;;;;;0.15;0.15;;;;;;;5.52;93.29;99252.00;5075329;28;20032;-81
2022/01/01 01:06:49;;;;;;;0.70;0.45;;;;;;;5.45;93.34;99244.16;5075122;28;20165;-81
2022/01/01 01:09:14;;;;;;;0.10;0.10;;;;;;;5.21;93.40;99205.53;5075398;28;20025;-81
2022/01/01 01:11:46;;;;;;;0.00;0.00;;;;;;;5.44;93.02;99237.28;5075128;28;20024;-81
2022/01/01 01:14:20;;;;;;;0.00;0.00;;;;;;;5.46;92.94;99223.78;5075307;28;20085;-81
2022/01/01 01:16:46;;;;;;;0.00;0.00;;;;;;;5.49;93.18;99228.59;5074740;28;20032;-81
2022/01/01 01:19:11;;;;;;;0.00;0.00;;;;;;;5.49;92.92;99233.88;5074988;28;20016;-81
2022/01/01 01:21:37;;;;;;;0.00;0.00;;;;;;;5.45;93.00;99217.63;5074755;28;20038;-81
2022/01/01 01:24:03;;;;;;;0.05;0.05;;;;;;;5.42;92.50;99220.78;5074726;28;20185;-81
2022/01/01 01:26:29;;;;;;;0.22;0.22;;;;;;;5.45;91.96;99222.94;5074792;28;20024;-81
2022/01/01 01:28:56;;;;;;;0.10;0.10;;;;;;;5.44;91.52;99225.84;5074531;28;20508;-81
2022/01/01 01:31:24;;;;;;;0.00;0.00;;;;;;;5.41;91.49;99231.63;5074766;28;20509;-81
2022/01/01 01:33:49;;;;;;;0.00;0.00;;;;;;;5.18;90.96;99188.25;5074567;28;20051;-81
2022/01/01 01:36:15;;;;;;;0.00;0.00;;;;;;;5.32;91.07;99209.97;5074630;28;20486;-82
2022/01/01 01:38:40;;;;;;;0.10;0.10;;;;;;;5.24;90.77;99195.25;5074450;28;20084;-82
2022/01/01 01:41:07;;;;;;;0.17;0.17;;;;;;;5.22;91.41;99201.84;5074493;28;20498;-82
2022/01/01 01:43:33;;;;;;;0.00;0.00;;;;;;;5.22;91.20;99191.22;5074399;28;20567;-81
2022/01/01 01:46:04;;;;;;;0.00;0.00;;;;;;;5.11;90.92;99180.44;5074339;28;20063;-81
2022/01/01 01:48:31;;;;;;;0.00;0.00;;;;;;;5.16;91.30;99194.84;5074311;28;20038;-81
2022/01/01 01:50:57;;;;;;;6.55;1.13;;;;;;;5.06;91.34;99176.88;5074328;28;20028;-81
2022/01/01 01:53:23;;;;;;;0.10;0.10;;;;;;;5.09;91.38;99181.69;5074006;28;20504;-81
2022/01/01 01:55:49;;;;;;;0.00;0.00;;;;;;;5.12;91.25;99189.19;5074148;28;20031;-81
2022/01/01 01:58:16;;;;;;;0.10;0.10;;;;;;;5.03;91.40;99166.75;5074381;28;20439;-81
2022/01/01 02:03:10;;;;;;;0.00;0.00;;;;;;;5.01;91.18;99171.50;5092260;28;20028;-81
2022/01/01 02:05:36;;;;;;;0.00;0.00;;;;;;;5.01;91.12;99169.63;5074082;28;20479;-82
2022/01/01 02:08:04;;;;;;;0.20;0.20;;;;;;;5.02;91.77;99154.56;5074057;28;20024;-81
2022/01/01 02:10:32;;;;;;;0.00;0.00;;;;;;;4.98;91.54;99154.22;5073964;28;20032;-82
2022/01/01 02:12:58;;;;;;;0.00;0.00;;;;;;;5.00;92.24;99159.28;5073804;28;20032;-81
2022/01/01 02:15:38;;;;;;;0.00;0.00;;;;;;;5.03;92.44;99162.28;5073986;28;20464;-82
2022/01/01 02:18:03;;;;;;;0.00;0.00;;;;;;;4.95;92.37;99160.78;5073827;28;20028;-82
2022/01/01 02:20:29;;;;;;;0.00;0.00;;;;;;;4.89;92.43;99152.97;5073833;28;20032;-82
2022/01/01 02:22:58;;;;;;;0.00;0.00;;;;;;;4.90;93.21;99152.72;5073499;28;20122;-81
2022/01/01 02:25:24;;;;;;;0.00;0.00;;;;;;;4.88;93.23;99149.53;5073529;28;20057;-81
2022/01/01 02:27:50;;;;;;;0.00;0.00;;;;;;;4.89;93.41;99161.72;5073447;28;20055;-81
2022/01/01 02:30:15;;;;;;;0.10;0.10;;;;;;;4.90;93.34;99151.94;5073619;28;20115;-81
2022/01/01 02:32:41;;;;;;;0.00;0.00;;;;;;;4.89;93.53;99152.97;5073389;28;20036;-81
2022/01/01 02:35:09;;;;;;;0.00;0.00;;;;;;;4.91;93.71;99151.69;5073526;28;20035;-81
2022/01/01 02:37:35;;;;;;;0.00;0.00;;;;;;;4.90;94.05;99154.59;5073459;28;20032;-81
2022/01/01 02:40:02;;;;;;;0.00;0.00;;;;;;;4.88;93.92;99152.19;5073206;28;20059;-81
2022/01/01 02:42:27;;;;;;;0.00;0.00;;;;;;;4.84;94.16;99143.06;5073593;28;20476;-81
2022/01/01 02:44:54;;;;;;;0.00;0.00;;;;;;;4.89;94.22;99145.03;5072950;28;20034;-82
2022/01/01 02:47:20;;;;;;;0.00;0.00;;;;;;;4.90;94.26;99151.94;5073332;28;20028;-81
2022/01/01 02:49:45;;;;;;;0.00;0.00;;;;;;;4.83;94.20;99135.38;5072785;28;20406;-81
2022/01/01 02:52:11;;;;;;;0.05;0.05;;;;;;;4.91;94.08;99141.09;5073272;28;20035;-81
2022/01/01 02:54:36;;;;;;;0.00;0.00;;;;;;;4.89;94.66;99142.38;5073182;28;20039;-81
2022/01/01 02:57:02;;;;;;;0.00;0.00;;;;;;;4.87;94.64;99153.22;5073092;28;20104;-81
2022/01/01 02:59:27;;;;;;;0.00;0.00;;;;;;;4.92;94.40;99150.66;5073059;28;20116;-81
2022/01/01 03:01:53;;;;;;;0.00;0.00;;;;;;;4.91;94.89;99143.75;5072985;28;20035;-82
2022/01/01 03:04:18;;;;;;;0.00;0.00;;;;;;;4.92;94.71;99139.25;5073113;28;20024;-81
2022/01/01 03:06:52;;;;;;;0.00;0.00;;;;;;;4.86;95.08;99127.75;5072998;28;20491;-81
2022/01/01 03:09:17;;;;;;;0.00;0.00;;;;;;;4.94;95.03;99143.28;5073116;28;20035;-81
2022/01/01 03:11:43;;;;;;;0.00;0.00;;;;;;;4.97;94.70;99145.44;5072699;28;20028;-81
2022/01/01 03:14:10;;;;;;;0.00;0.00;;;;;;;4.96;94.67;99130.59;5072536;28;20024;-81
2022/01/01 03:16:36;;;;;;;0.00;0.00;;;;;;;4.98;94.56;99122.41;5073052;28;20028;-81
2022/01/01 03:19:01;;;;;;;0.00;0.00;;;;;;;5.04;94.65;99134.72;5072797;28;20066;-81
2022/01/01 03:21:26;;;;;;;0.00;0.00;;;;;;;5.06;94.63;99142.44;5073019;28;20054;-81
2022/01/01 03:23:52;;;;;;;0.00;0.00;;;;;;;5.05;94.44;99124.91;5072843;28;20115;-81
2022/01/01 03:26:17;;;;;;;0.00;0.00;;;;;;;5.07;94.02;99139.53;5072978;28;20063;-81
2022/01/01 03:28:43;;;;;;;0.00;0.00;;;;;;;5.07;93.83;99139.53;5072794;28;20114;-81
2022/01/01 03:31:08;;;;;;;0.03;0.03;;;;;;;5.06;93.40;99142.44;5072889;28;20139;-81
2022/01/01 03:33:34;;;;;;;0.00;0.00;;;;;;;5.08;93.67;99143.81;5072904;28;20500;-81
2022/01/01 03:35:59;;;;;;;0.00;0.00;;;;;;;5.10;93.50;99143.56;5072405;28;20514;-81
2022/01/01 03:38:24;;;;;;;0.00;0.00;;;;;;;5.07;93.28;99149.34;5072608;28;20123;-81
2022/01/01 03:40:50;;;;;;;0.00;0.00;;;;;;;5.11;93.44;99153.94;5072587;28;20449;-81
2022/01/01 03:43:15;;;;;;;0.00;0.00;;;;;;;5.09;93.19;99152.53;5072838;28;20032;-81
2022/01/01 03:45:41;;;;;;;0.00;0.00;;;;;;;5.07;92.69;99160.75;5072826;28;20022;-81
2022/01/01 03:48:06;;;;;;;0.90;0.90;;;;;;;5.02;92.58;99149.25;5072505;28;20028;-81
2022/01/01 03:50:33;;;;;;;0.00;0.00;;;;;;;4.95;92.54;99147.53;5072837;28;20024;-81
2022/01/01 03:52:59;;;;;;;0.00;0.00;;;;;;;4.90;92.83;99144.00;5072473;28;20020;-81
2022/01/01 03:55:24;;;;;;;0.00;0.00;;;;;;;4.86;93.04;99146.31;5072735;28;20028;-81
2022/01/01 03:57:50;;;;;;;0.00;0.00;;;;;;;4.84;93.52;99145.72;5072424;28;20032;-81
2022/01/01 04:00:16;;;;;;;0.00;0.00;;;;;;;4.74;93.55;99148.97;5072771;28;20024;-81
2022/01/01 04:02:41;;;;;;;0.00;0.00;;;;;;;4.78;94.08;99151.97;5072687;28;20028;-81
2022/01/01 04:05:07;;;;;;;0.00;0.00;;;;;;;4.80;94.04;99155.19;5072347;28;20376;-82
2022/01/01 04:07:33;;;;;;;0.10;0.10;;;;;;;4.74;93.81;99148.97;5072531;28;20032;-82
2022/01/01 04:09:59;;;;;;;0.00;0.00;;;;;;;4.66;94.05;99136.09;5072179;28;20020;-81
2022/01/01 04:12:26;;;;;;;1.63;1.40;;;;;;;4.60;94.02;99132.56;5072593;28;20461;-81
2022/01/01 04:14:51;;;;;;;0.43;0.43;;;;;;;4.64;93.46;99133.69;5072308;28;20060;-80
2022/01/01 04:17:17;;;;;;;0.00;0.00;;;;;;;4.69;93.43;99140.13;5072276;28;20116;-81
2022/01/01 04:19:42;;;;;;;1.17;0.55;;;;;;;4.63;93.65;99137.38;5072564;28;20036;-81
2022/01/01 04:22:17;;;;;;;7.15;1.55;;;;;;;4.53;94.30;99134.53;5072033;28;20096;-81
2022/01/01 04:24:42;;;;;;;0.00;0.00;;;;;;;4.56;95.02;99151.78;5072380;28;20036;-82
2022/01/01 04:27:08;;;;;;;0.45;0.45;;;;;;;4.51;94.67;99149.06;5075001;28;20031;-81
2022/01/01 04:29:34;;;;;;;0.20;0.20;;;;;;;4.47;94.84;99146.06;5075906;28;20032;-81
2022/01/01 04:32:01;;;;;;;0.00;0.00;;;;;;;4.52;94.61;99167.34;5075561;28;20016;-81
2022/01/01 04:34:27;;;;;;;0.00;0.00;;;;;;;4.50;94.48;99148.22;5075922;28;20032;-81
2022/01/01 04:37:11;;;;;;;0.70;0.70;;;;;;;4.52;94.30;99143.50;5075402;28;20039;-81
2022/01/01 04:39:37;;;;;;;0.00;0.00;;;;;;;4.47;93.76;99141.56;5075806;28;20123;-81
2022/01/01 04:42:03;;;;;;;0.38;0.38;;;;;;;4.48;93.92;99134.44;5075502;28;20035;-81
2022/01/01 04:44:28;;;;;;;0.00;0.00;;;;;;;4.47;93.53;99133.63;5075692;28;20028;-81
2022/01/01 04:46:54;;;;;;;0.00;0.00;;;;;;;4.51;93.72;99149.06;5075463;28;20028;-82
2022/01/01 04:49:19;;;;;;;0.00;0.00;;;;;;;4.48;93.89;99145.03;5075388;28;20058;-81
2022/01/01 04:51:45;;;;;;;0.10;0.10;;;;;;;4.47;94.10;99140.78;5075390;28;20024;-82
2022/01/01 04:54:15;;;;;;;1.00;0.90;;;;;;;4.48;94.03;99142.38;5075116;28;20501;-82
2022/01/01 04:56:46;;;;;;;0.15;0.15;;;;;;;4.47;94.02;99146.84;5075254;28;20020;-82
2022/01/01 04:59:12;;;;;;;0.00;0.00;;;;;;;4.46;94.15;99136.50;5075414;28;20028;-81
2022/01/01 05:01:39;;;;;;;0.00;0.00;;;;;;;4.53;94.51;99153.06;5075366;28;20020;-81
2022/01/01 05:04:05;;;;;;;0.00;0.00;;;;;;;4.51;94.32;99143.75;5075032;28;20122;-81
2022/01/01 05:06:31;;;;;;;0.00;0.00;;;;;;;4.50;93.96;99137.63;5075252;28;20032;-81
2022/01/01 05:08:57;;;;;;;0.00;0.00;;;;;;;4.48;93.88;99132.56;5075022;28;20563;-81
2022/01/01 05:11:22;;;;;;;0.00;0.00;;;;;;;4.39;94.00;99118.06;5075175;28;20489;-81
2022/01/01 05:13:47;;;;;;;3.45;2.17;;;;;;;4.49;94.01;99143.97;5075015;28;20024;-81
2022/01/01 05:16:17;;;;;;;0.00;0.00;;;;;;;4.44;94.10;99139.41;5075146;28;20084;-81
2022/01/01 05:18:42;;;;;;;0.00;0.00;;;;;;;4.46;94.30;99147.09;5074757;28;20073;-81
2022/01/01 05:21:08;;;;;;;0.20;0.20;;;;;;;4.44;93.77;99135.91;5074587;28;20111;-81
2022/01/01 05:23:33;;;;;;;0.00;0.00;;;;;;;4.42;94.11;99133.50;5074761;28;20040;-81
2022/01/01 05:25:59;;;;;;;0.85;0.52;;;;;;;4.47;93.82;99146.84;5074740;28;20016;-81
2022/01/01 05:28:24;;;;;;;0.00;0.00;;;;;;;4.46;93.79;99152.41;5074880;28;20487;-81
2022/01/01 05:30:50;;;;;;;0.00;0.00;;;;;;;4.37;94.19;99137.88;5074451;28;20024;-81
2022/01/01 05:33:16;;;;;;;0.00;0.00;;;;;;;4.40;94.03;99138.22;5074715;28;20031;-82
2022/01/01 05:35:42;;;;;;;0.10;0.10;;;;;;;4.33;93.98;99137.53;5074448;28;20510;-82
2022/01/01 05:38:07;;;;;;;0.00;0.00;;;;;;;4.25;94.29;99137.94;5073998;28;20411;-82
2022/01/01 05:40:33;;;;;;;0.00;0.00;;;;;;;4.25;94.31;99151.97;5074604;28;20024;-82
2022/01/01 05:42:58;;;;;;;2.78;2.58;;;;;;;4.18;93.90;99145.19;5074317;28;20103;-82
2022/01/01 05:45:24;;;;;;;0.95;0.95;;;;;;;4.12;94.11;99162.78;5074413;28;20494;-82
2022/01/01 05:47:49;;;;;;;1.05;1.02;;;;;;;4.03;95.49;99150.91;5074221;28;20483;-82
2022/01/01 05:50:14;;;;;;;0.20;0.20;;;;;;;4.00;96.23;99160.13;5074160;28;20051;-82
2022/01/01 05:52:40;;;;;;;0.00;0.00;;;;;;;3.93;96.65;99154.94;5074273;28;20441;-82
2022/01/01 05:55:06;;;;;;;0.17;0.17;;;;;;;3.86;96.87;99141.03;5074119;28;20020;-82
2022/01/01 05:57:31;;;;;;;0.10;0.10;;;;;;;3.90;96.44;99152.75;5074176;28;20028;-81
2022/01/01 05:59:57;;;;;;;0.00;0.00;;;;;;;3.89;96.84;99145.84;5073968;28;20089;-81
2022/01/01 06:02:22;;;;;;;0.08;0.08;;;;;;;3.90;97.00;99151.97;5073519;28;20073;-82
2022/01/01 06:04:47;;;;;;;0.00;0.00;;;;;;;3.89;97.03;99140.56;5073681;28;20426;-82
2022/01/01 06:07:13;;;;;;;0.00;0.00;;;;;;;3.98;96.99;99144.47;5073168;28;20530;-81
2022/01/01 06:09:38;;;;;;;0.55;0.55;;;;;;;3.97;96.90;99139.44;5073569;28;20023;-82
2022/01/01 06:12:04;;;;;;;0.15;0.15;;;;;;;4.03;97.17;99145.63;5072585;28;20566;-82
2022/01/01 06:14:29;;;;;;;0.43;0.43;;;;;;;4.13;97.15;99141.38;5073257;28;20036;-82
2022/01/01 06:16:55;;;;;;;0.10;0.10;;;;;;;4.15;96.72;99152.53;5072981;28;20050;-82
2022/01/01 06:19:20;;;;;;;0.00;0.00;;;;;;;4.27;96.59;99157.84;5073377;28;20020;-82
2022/01/01 06:21:46;;;;;;;0.00;0.00;;;;;;;4.30;96.61;99149.41;5073011;28;20028;-82
2022/01/01 06:24:11;;;;;;;1.05;0.85;;;;;;;4.36;96.40;99158.28;5072811;28;20085;-82
2022/01/01 06:26:37;;;;;;;0.00;0.00;;;;;;;4.40;96.00;99158.63;5072911;28;20028;-81
2022/01/01 06:29:02;;;;;;;0.00;0.00;;;;;;;4.45;96.27;99169.31;5072528;28;20498;-81
2022/01/01 06:31:28;;;;;;;0.65;0.65;;;;;;;4.47;96.34;99168.03;5072347;28;20154;-81
2022/01/01 06:33:54;;;;;;;0.30;0.30;;;;;;;4.52;96.29;99167.34;5072564;28;20036;-81
2022/01/01 06:36:19;;;;;;;0.00;0.00;;;;;;;4.59;95.77;99173.34;5072743;28;20456;-81
2022/01/01 06:38:45;;;;;;;0.55;0.55;;;;;;;4.65;96.20;99174.22;5072754;28;20024;-82
2022/01/01 06:41:11;;;;;;;0.00;0.00;;;;;;;4.72;95.42;99176.75;5072856;28;20398;-81
2022/01/01 06:43:38;;;;;;;1.27;1.17;;;;;;;4.71;95.27;99162.72;5072789;28;20032;-81
2022/01/01 06:46:04;;;;;;;0.00;0.00;;;;;;;4.83;94.96;99175.13;5072442;28;20028;-81
2022/01/01 06:48:29;;;;;;;0.00;0.00;;;;;;;4.87;94.88;99166.47;5071758;28;20039;-81
2022/01/01 06:50:55;;;;;;;0.00;0.00;;;;;;;4.99;94.98;99178.88;5072466;28;20024;-81
2022/01/01 06:53:20;;;;;;;0.00;0.00;;;;;;;5.04;94.46;99182.44;5072658;28;20020;-80
2022/01/01 06:55:46;;;;;;;0.00;0.00;;;;;;;5.13;94.20;99185.50;5072809;28;20081;-81
2022/01/01 06:58:11;;;;;;;0.00;0.00;;;;;;;5.19;94.09;99187.22;5072646;28;20024;-80
2022/01/01 07:00:40;;;;;;;0.10;0.10;;;;;;;5.31;94.18;99192.47;5073295;28;20035;-81
2022/01/01 07:03:05;;;;;;;;;;;;;;;5.36;93.90;99187.25;5073080;28;20024;-81
2022/01/01 07:05:31;;;;;;;0.00;0.00;;;;;;;5.44;94.06;99204.63;5072739;28;19908;-80
2022/01/01 07:07:57;;;;;;;0.32;0.32;;;;;;;5.44;93.68;99194.84;5072799;28;20025;-81
2022/01/01 07:10:22;;;;;;;0.00;0.00;;;;;;;5.42;93.00;99185.47;5073220;28;20482;-81
2022/01/01 07:12:47;;;;;;;0.00;0.00;;;;;;;5.52;93.41;99184.88;5073158;28;20066;-81
2022/01/01 07:15:15;;;;;;;0.10;0.10;;;;;;;5.60;93.22;99190.59;5072909;28;20032;-80
2022/01/01 07:17:41;;;;;;;0.00;0.00;;;;;;;5.61;92.59;99181.59;5072972;28;20035;-80
2022/01/01 07:20:07;;;;;;;0.00;0.00;;;;;;;5.67;92.55;99185.13;5071916;28;20020;-79
2022/01/01 07:22:38;;;;;;;0.00;0.00;;;;;;;5.73;92.31;99189.47;5071852;28;20391;-82
2022/01/01 07:25:04;;;;;;;0.20;0.20;;;;;;;5.75;91.83;99187.38;5072804;28;20115;-81
2022/01/01 07:27:30;;;;;;;0.05;0.05;;;;;;;5.82;92.04;99184.56;5072621;28;20056;-81
2022/01/01 07:29:56;;;;;;;0.00;0.00;;;;;;;5.80;91.41;99181.38;5072722;28;20111;-80
2022/01/01 07:32:21;;;;;;;0.00;0.00;;;;;;;5.80;91.42;99167.28;5072897;28;20057;-80
2022/01/01 07:34:47;;;;;;;0.00;0.00;;;;;;;5.81;91.13;99166.22;5072864;28;20050;-81
2022/01/01 07:37:12;;;;;;;0.00;0.00;;;;;;;5.89;91.05;99168.50;5072810;28;20073;-80
2022/01/01 07:39:38;;;;;;;0.00;0.00;;;;;;;5.90;91.34;99170.09;5072855;28;20115;-80
2022/01/01 07:42:04;;;;;;;0.20;0.20;;;;;;;5.98;91.45;99171.53;5072608;28;20020;-80
2022/01/01 07:44:29;;;;;;;2.60;0.65;;;;;;;5.99;90.27;99178.50;5072668;28;20024;-80
2022/01/01 07:46:55;;;;;;;0.75;0.52;;;;;;;6.00;90.29;99169.50;5072676;28;20032;-81
2022/01/01 07:49:21;;;;;;;0.05;0.05;;;;;;;5.99;90.27;99170.53;5072333;28;20039;-81
2022/01/01 07:51:46;;;;;;;0.10;0.10;;;;;;;6.02;90.44;99170.06;5072577;28;20024;-81
2022/01/01 07:54:12;;;;;;;0.50;0.50;;;;;;;6.06;90.83;99168.50;5072388;28;20028;-81
2022/01/01 07:56:37;;;;;;;0.00;0.00;;;;;;;6.02;90.86;99162.09;5072614;28;20159;-81
2022/01/01 07:59:03;;;;;;;0.00;0.00;;;;;;;6.05;90.96;99169.56;5072430;28;20036;-81
2022/01/01 08:01:28;;;;;;;0.00;0.00;;;;;;;6.03;90.83;99167.16;5076072;28;20519;-81
2022/01/01 08:03:56;;;;;;;0.30;0.30;;;;;;;6.07;90.64;99175.44;5076441;28;20016;-81
2022/01/01 08:06:22;;;;;;;0.00;0.00;;;;;;;6.07;90.71;99172.78;5076343;28;20044;-81
2022/01/01 08:08:47;;;;;;;0.00;0.00;;;;;;;6.05;90.92;99161.59;5076024;28;20047;-79
2022/01/01 08:11:13;;;;;;;0.00;0.00;;;;;;;6.05;90.89;99166.91;5075918;28;20036;-82
2022/01/01 08:13:38;;;;;;;0.00;0.00;;;;;;;6.09;91.03;99175.97;5076243;28;20396;-82
2022/01/01 08:16:06;;;;;;;0.00;0.00;;;;;;;6.09;90.78;99168.84;5075964;28;20024;-82
2022/01/01 08:18:31;;;;;;;0.00;0.00;;;;;;;6.08;90.56;99153.94;5076083;28;20050;-82
2022/01/01 08:20:56;;;;;;;0.00;0.00;;;;;;;6.12;90.89;99156.13;5076078;28;20455;-82
2022/01/01 08:23:22;;;;;;;0.10;0.10;;;;;;;6.09;91.00;99146.78;5075578;28;20031;-83
2022/01/01 08:25:48;;;;;;;0.00;0.00;;;;;;;6.13;91.49;99155.88;5074911;28;20043;-83
2022/01/01 08:28:13;;;;;;;0.00;0.00;;;;;;;6.10;91.70;99143.06;5075391;28;20038;-83
2022/01/01 08:30:38;;;;;;;0.00;0.00;;;;;;;6.11;91.90;99135.94;5075871;28;20024;-82
2022/01/01 08:33:04;;;;;;;0.00;0.00;;;;;;;6.10;91.94;99140.41;5075446;28;20082;-83
2022/01/01 08:35:31;;;;;;;0.00;0.00;;;;;;;6.07;92.30;99136.41;5075964;28;20028;-82
2022/01/01 08:37:57;;;;;;;0.00;0.00;;;;;;;6.21;92.94;99163.44;5075786;28;20024;-82
2022/01/01 08:40:27;;;;;;;0.00;0.00;;;;;;;6.23;92.46;99160.53;5075391;28;20032;-82
2022/01/01 08:42:53;;;;;;;0.10;0.10;;;;;;;6.21;92.76;99144.03;5075370;28;20020;-81
2022/01/01 08:45:19;;;;;;;0.00;0.00;;;;;;;6.30;93.12;99155.84;5075406;28;20035;-82
2022/01/01 08:47:44;;;;;;;0.38;0.38;;;;;;;6.39;93.43;99164.19;5075420;28;20032;-82
2022/01/01 08:50:10;;;;;;;0.00;0.00;;;;;;;6.45;93.33;99175.72;5075087;28;20039;-81
2022/01/01 08:52:36;;;;;;;0.20;0.20;;;;;;;6.46;93.11;99172.78;5075044;28;20074;-82
2022/01/01 08:55:02;;;;;;;0.00;0.00;;;;;;;6.55;93.75;99166.03;5075203;28;20040;-81
2022/01/01 08:57:29;;;;;;;0.35;0.35;;;;;;;6.61;94.03;99172.19;5075383;28;20028;-81
2022/01/01 08:59:55;;;;;;;0.45;0.45;;;;;;;6.59;95.05;99166.31;5075357;28;20127;-80
2022/01/01 09:02:21;;;;;;;0.28;0.28;;;;;;;6.61;94.75;99169.53;5075045;28;20034;-82
2022/01/01 09:04:46;;;;;;;2.83;1.08;;;;;;;6.71;95.06;99182.97;5075289;28;20497;-81
2022/01/01 09:07:12;;;;;;;3.83;0.80;;;;;;;6.74;94.93;99179.00;5074037;28;20539;-81
2022/01/01 09:09:39;;;;;;;0.80;0.80;;;;;;;6.86;94.31;99187.66;5072597;28;20122;-81
2022/01/01 09:12:06;;;;;;;0.00;0.00;;;;;;;6.89;94.02;99168.53;5071562;28;20028;-81
2022/01/01 09:14:32;;;;;;;0.00;0.00;;;;;;;7.05;93.93;99184.66;5072571;28;20028;-83
2022/01/01 09:16:57;;;;;;;0.43;0.43;;;;;;;7.11;93.87;99173.03;5073570;28;20030;-81
2022/01/01 09:19:23;;;;;;;0.55;0.55;;;;;;;7.24;93.42;99176.34;5074775;28;20043;-81
2022/01/01 09:21:48;;;;;;;0.45;0.32;;;;;;;7.36;94.14;99177.00;5074932;28;20028;-81
2022/01/01 09:24:14;;;;;;;0.00;0.00;;;;;;;7.43;93.76;99161.63;5074311;28;20027;-80
2022/01/01 09:26:39;;;;;;;0.03;0.03;;;;;;;7.58;92.81;99160.16;5074725;28;20028;-81
2022/01/01 09:29:06;;;;;;;0.00;0.00;;;;;;;7.68;92.30;99160.28;5074531;28;20028;-80
2022/01/01 09:31:32;;;;;;;0.08;0.08;;;;;;;7.78;91.95;99165.66;5074686;28;20131;-81
2022/01/01 09:33:58;;;;;;;0.00;0.00;;;;;;;7.88;91.50;99159.63;5074665;28;20138;-82
2022/01/01 09:36:24;;;;;;;0.00;0.00;;;;;;;7.96;91.67;99158.34;5074157;28;20039;-83
2022/01/01 09:38:49;;;;;;;0.25;0.25;;;;;;;8.08;90.86;99160.81;5074561;28;20028;-82
2022/01/01 09:41:15;;;;;;;0.32;0.32;;;;;;;8.08;90.62;99152.81;5074321;28;20042;-82
2022/01/01 09:43:41;;;;;;;0.00;0.00;;;;;;;8.14;89.67;99152.63;5074421;28;20407;-82
2022/01/01 09:46:12;;;;;;;0.70;0.70;;;;;;;8.29;88.95;99165.22;5074042;28;20024;-82
2022/01/01 09:48:38;;;;;;;0.80;0.35;;;;;;;8.17;88.83;99133.44;5074198;28;20039;-82
2022/01/01 09:51:04;;;;;;;0.00;0.00;;;;;;;8.33;88.79;99142.31;5074050;28;20136;-82
2022/01/01 09:53:31;;;;;;;0.28;0.28;;;;;;;8.42;88.18;99147.97;5074226;28;20111;-82
2022/01/01 09:56:00;;;;;;;0.30;0.30;;;;;;;8.45;88.18;99142.13;5074241;28;20024;-82
2022/01/01 09:58:28;;;;;;;0.15;0.15;;;;;;;8.49;87.80;99129.09;5073741;28;20542;-82
2022/01/01 10:00:54;;;;;;;0.03;0.03;;;;;;;8.59;88.08;99139.81;5074101;28;20475;-81
2022/01/01 10:03:38;;;;;;;0.00;0.00;;;;;;;8.67;88.45;99130.50;5073869;28;20105;-81
2022/01/01 10:06:08;;;;;;;0.05;0.05;;;;;;;8.75;88.53;99131.88;5073530;28;20062;-81
2022/01/01 10:08:37;;;;;;;0.00;0.00;;;;;;;8.80;88.45;99135.38;5073829;28;20031;-81
2022/01/01 10:11:02;;;;;;;0.30;0.30;;;;;;;8.91;88.41;99138.88;5073942;28;20046;-81
2022/01/01 10:13:29;;;;;;;0.45;0.45;;;;;;;8.98;88.48;99138.59;5073933;28;20495;-81
2022/01/01 10:15:56;;;;;;;0.50;0.50;;;;;;;9.03;88.92;99135.94;5073719;28;20115;-81
2022/01/01 10:18:27;;;;;;;1.57;1.50;;;;;;;8.97;89.03;99110.31;5073343;28;20657;-81
2022/01/01 10:21:02;;;;;;;0.65;0.65;;;;;;;9.16;89.29;99134.66;5073467;28;20022;-81
2022/01/01 10:23:30;;;;;;;1.48;1.38;;;;;;;9.25;89.37;99126.91;5073050;28;20023;-81
2022/01/01 10:29:13;;;;;;;2.00;1.17;;;;;;;9.33;88.86;99117.59;5091572;28;20407;-83
2022/01/01 10:31:52;;;;;;;1.20;0.63;;;;;;;9.42;88.87;99127.50;5073472;28;20066;-82
2022/01/01 10:34:20;;;;;;;0.50;0.50;;;;;;;9.50;88.63;99120.81;5073339;28;20024;-82
2022/01/01 10:36:47;;;;;;;1.95;1.65;;;;;;;9.54;88.00;99116.53;5073468;28;20453;-82
2022/01/01 10:39:18;;;;;;;0.03;0.03;;;;;;;9.61;88.05;99121.59;5073331;28;20073;-82
2022/01/01 10:42:06;;;;;;;0.10;0.10;;;;;;;9.65;88.28;99124.53;5073274;28;20473;-82
2022/01/01 10:44:34;;;;;;;0.43;0.43;;;;;;;9.68;87.60;99111.47;5072810;28;20115;-83
2022/01/01 10:47:06;;;;;;;0.65;0.65;;;;;;;9.76;88.08;99118.94;5073427;28;20043;-83
2022/01/01 10:52:21;;;;;;;0.75;0.75;;;;;;;9.93;87.11;99123.97;5091237;28;20028;-82
2022/01/01 10:55:02;;;;;;;0.80;0.57;;;;;;;9.96;87.04;99119.97;5090771;28;20044;-82
2022/01/01 10:57:35;;;;;;;0.10;0.10;;;;;;;10.04;87.09;99127.44;5073113;28;20081;-83
2022/01/01 11:00:16;;;;;;;0.68;0.68;;;;;;;10.06;86.80;99119.16;5073196;28;20028;-82
2022/01/01 11:02:53;;;;;;;0.00;0.00;;;;;;;10.12;87.06;99109.25;5072769;28;20030;-82
2022/01/01 11:05:40;;;;;;;2.15;1.65;;;;;;;10.27;86.30;99117.22;5072800;28;20038;-82
2022/01/01 11:08:08;;;;;;;2.88;1.95;;;;;;;10.36;86.74;99117.47;5072763;28;20081;-80
2022/01/01 11:10:35;;;;;;;0.68;0.68;;;;;;;10.41;86.93;99123.63;5072953;28;20031;-83
2022/01/01 11:13:02;;;;;;;0.22;0.22;;;;;;;10.48;86.96;99112.63;5072946;28;20042;-82
2022/01/01 11:15:28;;;;;;;1.85;1.75;;;;;;;10.60;86.34;99122.25;5072530;28;20035;-82
2022/01/01 11:17:56;;;;;;;0.00;0.00;;;;;;;10.68;86.50;99113.63;5072847;28;20035;-81
2022/01/01 11:20:22;;;;;;;0.13;0.13;;;;;;;10.77;84.86;99113.88;5072449;28;20039;-82
2022/01/01 11:22:48;;;;;;;0.10;0.10;;;;;;;10.82;84.97;99103.13;5072317;28;20025;-81
2022/01/01 11:25:14;;;;;;;0.47;0.47;;;;;;;11.00;85.90;99110.53;5072436;28;20127;-81
2022/01/01 11:27:40;;;;;;;0.95;0.95;;;;;;;11.12;85.36;99107.50;5072858;28;20052;-81
2022/01/01 11:30:08;;;;;;;0.30;0.30;;;;;;;11.23;85.12;99099.41;5072788;28;20546;-81
2022/01/01 11:32:57;;;;;;;0.30;0.30;;;;;;;11.44;83.34;99102.75;5072852;28;20123;-80
2022/01/01 11:35:27;;;;;;;0.00;0.00;;;;;;;11.63;83.17;99089.44;5074569;28;20028;-81
2022/01/01 11:37:57;;;;;;;0.13;0.13;;;;;;;11.82;82.51;99094.91;5076715;28;20044;-81
2022/01/01 11:40:24;;;;;;;0.10;0.10;;;;;;;12.00;82.53;99088.84;5076640;28;20024;-80
2022/01/01 11:42:50;;;;;;;0.20;0.20;;;;;;;12.16;81.72;99084.13;5095228;28;20035;-81
2022/01/01 11:45:41;;;;;;;0.10;0.10;;;;;;;12.37;80.52;99083.88;5076461;28;20028;-81
2022/01/01 11:48:26;;;;;;;0.22;0.22;;;;;;;12.55;79.33;99079.66;5076747;28;20028;-81